sensor_id;sensor_type;location;lat;lon;timestamp;P1;durP1;ratioP1;P2;durP2;ratioP2
25950;SDS011;13748;52.240;6.002;2023-07-30T00:00:42;4.78;;;2.08;;
25950;SDS011;13748;52.240;6.002;2023-07-30T00:03:09;7.90;;;1.92;;
25950;SDS011;13748;52.240;6.002;2023-07-30T00:05:36;7.38;;;2.00;;
25950;SDS011;13748;52.240;6.002;2023-07-30T00:08:03;4.93;;;1.80;;
25950;SDS011;13748;52.240;6.002;2023-07-30T00:10:29;3.95;;;2.22;;
25950;SDS011;13748;52.240;6.002;2023-07-30T00:12:56;5.35;;;2.08;;
25950;SDS011;13748;52.240;6.002;2023-07-30T00:15:23;5.30;;;1.83;;
25950;SDS011;13748;52.240;6.002;2023-07-30T00:17:50;5.78;;;1.80;;
25950;SDS011;13748;52.240;6.002;2023-07-30T00:20:17;8.45;;;2.17;;
25950;SDS011;13748;52.240;6.002;2023-07-30T00:22:44;4.22;;;2.03;;
25950;SDS011;13748;52.240;6.002;2023-07-30T00:25:11;7.82;;;2.40;;
25950;SDS011;13748;52.240;6.002;2023-07-30T00:27:37;4.60;;;2.38;;
25950;SDS011;13748;52.240;6.002;2023-07-30T00:30:04;5.32;;;2.10;;
25950;SDS011;13748;52.240;6.002;2023-07-30T00:32:32;10.63;;;2.53;;
25950;SDS011;13748;52.240;6.002;2023-07-30T00:34:58;6.53;;;2.00;;
25950;SDS011;13748;52.240;6.002;2023-07-30T00:37:25;8.98;;;2.45;;
25950;SDS011;13748;52.240;6.002;2023-07-30T00:39:52;3.85;;;2.47;;
25950;SDS011;13748;52.240;6.002;2023-07-30T00:42:19;5.87;;;2.27;;
25950;SDS011;13748;52.240;6.002;2023-07-30T00:44:46;8.55;;;2.78;;
25950;SDS011;13748;52.240;6.002;2023-07-30T00:47:13;7.90;;;2.80;;
25950;SDS011;13748;52.240;6.002;2023-07-30T00:49:39;5.15;;;2.20;;
25950;SDS011;13748;52.240;6.002;2023-07-30T00:52:06;6.47;;;2.70;;
25950;SDS011;13748;52.240;6.002;2023-07-30T00:54:34;6.57;;;2.25;;
25950;SDS011;13748;52.240;6.002;2023-07-30T00:57:01;5.18;;;2.20;;
25950;SDS011;13748;52.240;6.002;2023-07-30T00:59:28;8.20;;;2.80;;
25950;SDS011;13748;52.240;6.002;2023-07-30T01:01:55;6.68;;;2.72;;
25950;SDS011;13748;52.240;6.002;2023-07-30T01:04:25;7.50;;;2.90;;
25950;SDS011;13748;52.240;6.002;2023-07-30T01:06:52;6.87;;;2.80;;
25950;SDS011;13748;52.240;6.002;2023-07-30T01:09:19;5.07;;;2.70;;
25950;SDS011;13748;52.240;6.002;2023-07-30T01:11:46;11.27;;;2.87;;
25950;SDS011;13748;52.240;6.002;2023-07-30T01:14:14;5.70;;;3.07;;
25950;SDS011;13748;52.240;6.002;2023-07-30T01:16:42;8.88;;;2.42;;
25950;SDS011;13748;52.240;6.002;2023-07-30T01:19:09;5.60;;;3.23;;
25950;SDS011;13748;52.240;6.002;2023-07-30T01:21:36;8.33;;;2.97;;
25950;SDS011;13748;52.240;6.002;2023-07-30T01:24:04;3.70;;;2.60;;
25950;SDS011;13748;52.240;6.002;2023-07-30T01:26:35;5.73;;;2.60;;
25950;SDS011;13748;52.240;6.002;2023-07-30T01:29:07;5.83;;;2.43;;
25950;SDS011;13748;52.240;6.002;2023-07-30T01:31:38;6.60;;;2.97;;
25950;SDS011;13748;52.240;6.002;2023-07-30T01:34:07;6.53;;;2.97;;
25950;SDS011;13748;52.240;6.002;2023-07-30T01:36:38;8.00;;;2.40;;
25950;SDS011;13748;52.240;6.002;2023-07-30T01:39:06;6.53;;;2.83;;
25950;SDS011;13748;52.240;6.002;2023-07-30T01:41:35;9.73;;;2.70;;
25950;SDS011;13748;52.240;6.002;2023-07-30T01:44:02;5.87;;;2.60;;
25950;SDS011;13748;52.240;6.002;2023-07-30T01:46:29;8.07;;;2.80;;
25950;SDS011;13748;52.240;6.002;2023-07-30T01:48:56;8.60;;;2.60;;
25950;SDS011;13748;52.240;6.002;2023-07-30T01:51:23;5.23;;;2.30;;
25950;SDS011;13748;52.240;6.002;2023-07-30T01:53:50;5.60;;;2.47;;
25950;SDS011;13748;52.240;6.002;2023-07-30T01:56:16;3.90;;;2.47;;
25950;SDS011;13748;52.240;6.002;2023-07-30T01:58:43;5.63;;;2.90;;
25950;SDS011;13748;52.240;6.002;2023-07-30T02:01:10;9.67;;;3.30;;
25950;SDS011;13748;52.240;6.002;2023-07-30T02:03:37;5.47;;;2.80;;
25950;SDS011;13748;52.240;6.002;2023-07-30T02:06:04;6.75;;;2.63;;
25950;SDS011;13748;52.240;6.002;2023-07-30T02:08:31;6.67;;;2.37;;
25950;SDS011;13748;52.240;6.002;2023-07-30T02:10:58;6.80;;;2.23;;
25950;SDS011;13748;52.240;6.002;2023-07-30T02:13:25;5.63;;;2.77;;
25950;SDS011;13748;52.240;6.002;2023-07-30T02:15:52;6.47;;;2.63;;
25950;SDS011;13748;52.240;6.002;2023-07-30T02:18:19;4.73;;;2.30;;
25950;SDS011;13748;52.240;6.002;2023-07-30T02:20:46;8.70;;;3.07;;
25950;SDS011;13748;52.240;6.002;2023-07-30T02:23:13;6.40;;;2.60;;
25950;SDS011;13748;52.240;6.002;2023-07-30T02:25:42;12.00;;;2.90;;
25950;SDS011;13748;52.240;6.002;2023-07-30T02:28:09;6.87;;;2.60;;
25950;SDS011;13748;52.240;6.002;2023-07-30T02:30:40;7.47;;;2.17;;
25950;SDS011;13748;52.240;6.002;2023-07-30T02:33:07;9.57;;;2.67;;
25950;SDS011;13748;52.240;6.002;2023-07-30T02:35:34;7.47;;;3.20;;
25950;SDS011;13748;52.240;6.002;2023-07-30T02:38:01;7.47;;;2.97;;
25950;SDS011;13748;52.240;6.002;2023-07-30T02:40:29;9.20;;;2.80;;
25950;SDS011;13748;52.240;6.002;2023-07-30T02:42:57;4.43;;;2.57;;
25950;SDS011;13748;52.240;6.002;2023-07-30T02:45:24;8.03;;;2.80;;
25950;SDS011;13748;52.240;6.002;2023-07-30T02:47:51;7.17;;;3.20;;
25950;SDS011;13748;52.240;6.002;2023-07-30T02:50:18;5.93;;;2.80;;
25950;SDS011;13748;52.240;6.002;2023-07-30T02:52:46;17.97;;;3.23;;
25950;SDS011;13748;52.240;6.002;2023-07-30T02:55:13;6.63;;;2.90;;
25950;SDS011;13748;52.240;6.002;2023-07-30T02:57:42;9.50;;;3.43;;
25950;SDS011;13748;52.240;6.002;2023-07-30T03:00:09;6.70;;;2.80;;
25950;SDS011;13748;52.240;6.002;2023-07-30T03:02:37;6.73;;;3.23;;
25950;SDS011;13748;52.240;6.002;2023-07-30T03:05:04;3.97;;;2.33;;
25950;SDS011;13748;52.240;6.002;2023-07-30T03:07:31;8.37;;;2.70;;
25950;SDS011;13748;52.240;6.002;2023-07-30T03:09:58;7.37;;;2.90;;
25950;SDS011;13748;52.240;6.002;2023-07-30T03:12:25;7.17;;;3.33;;
25950;SDS011;13748;52.240;6.002;2023-07-30T03:14:52;8.33;;;2.97;;
25950;SDS011;13748;52.240;6.002;2023-07-30T03:17:19;6.87;;;2.97;;
25950;SDS011;13748;52.240;6.002;2023-07-30T03:19:46;10.60;;;2.73;;
25950;SDS011;13748;52.240;6.002;2023-07-30T03:22:13;6.50;;;2.67;;
25950;SDS011;13748;52.240;6.002;2023-07-30T03:24:40;12.53;;;3.07;;
25950;SDS011;13748;52.240;6.002;2023-07-30T03:27:07;11.77;;;3.10;;
25950;SDS011;13748;52.240;6.002;2023-07-30T03:29:34;7.67;;;2.87;;
25950;SDS011;13748;52.240;6.002;2023-07-30T03:32:01;5.63;;;2.67;;
25950;SDS011;13748;52.240;6.002;2023-07-30T03:34:28;5.60;;;3.23;;
25950;SDS011;13748;52.240;6.002;2023-07-30T03:36:55;9.97;;;4.40;;
25950;SDS011;13748;52.240;6.002;2023-07-30T03:39:24;8.27;;;3.40;;
25950;SDS011;13748;52.240;6.002;2023-07-30T03:41:51;11.77;;;3.47;;
25950;SDS011;13748;52.240;6.002;2023-07-30T03:44:18;9.07;;;3.27;;
25950;SDS011;13748;52.240;6.002;2023-07-30T03:46:45;11.40;;;3.00;;
25950;SDS011;13748;52.240;6.002;2023-07-30T03:49:13;6.50;;;2.53;;
25950;SDS011;13748;52.240;6.002;2023-07-30T03:51:40;7.03;;;3.20;;
25950;SDS011;13748;52.240;6.002;2023-07-30T03:54:07;11.47;;;3.50;;
25950;SDS011;13748;52.240;6.002;2023-07-30T03:56:34;9.70;;;3.50;;
25950;SDS011;13748;52.240;6.002;2023-07-30T03:59:00;8.43;;;3.00;;
25950;SDS011;13748;52.240;6.002;2023-07-30T04:01:27;8.07;;;3.00;;
25950;SDS011;13748;52.240;6.002;2023-07-30T04:03:56;10.43;;;4.07;;
25950;SDS011;13748;52.240;6.002;2023-07-30T04:06:23;8.17;;;3.67;;
25950;SDS011;13748;52.240;6.002;2023-07-30T04:08:50;8.73;;;3.17;;
25950;SDS011;13748;52.240;6.002;2023-07-30T04:11:17;8.47;;;3.30;;
25950;SDS011;13748;52.240;6.002;2023-07-30T04:13:44;7.60;;;3.47;;
25950;SDS011;13748;52.240;6.002;2023-07-30T04:16:10;11.07;;;3.83;;
25950;SDS011;13748;52.240;6.002;2023-07-30T04:18:37;11.00;;;3.60;;
25950;SDS011;13748;52.240;6.002;2023-07-30T04:21:04;11.00;;;3.90;;
25950;SDS011;13748;52.240;6.002;2023-07-30T04:23:31;15.23;;;3.65;;
25950;SDS011;13748;52.240;6.002;2023-07-30T04:25:58;12.63;;;4.30;;
25950;SDS011;13748;52.240;6.002;2023-07-30T04:28:25;8.90;;;4.00;;
25950;SDS011;13748;52.240;6.002;2023-07-30T04:30:52;8.93;;;4.05;;
25950;SDS011;13748;52.240;6.002;2023-07-30T04:33:19;14.30;;;4.17;;
25950;SDS011;13748;52.240;6.002;2023-07-30T04:35:46;12.63;;;4.32;;
25950;SDS011;13748;52.240;6.002;2023-07-30T04:38:13;16.15;;;4.70;;
25950;SDS011;13748;52.240;6.002;2023-07-30T04:40:40;18.58;;;5.38;;
25950;SDS011;13748;52.240;6.002;2023-07-30T04:43:06;13.35;;;4.80;;
25950;SDS011;13748;52.240;6.002;2023-07-30T04:45:34;11.48;;;4.80;;
25950;SDS011;13748;52.240;6.002;2023-07-30T04:48:01;15.20;;;5.93;;
25950;SDS011;13748;52.240;6.002;2023-07-30T04:50:28;14.73;;;5.95;;
25950;SDS011;13748;52.240;6.002;2023-07-30T04:52:55;12.02;;;5.45;;
25950;SDS011;13748;52.240;6.002;2023-07-30T04:55:22;11.32;;;5.57;;
25950;SDS011;13748;52.240;6.002;2023-07-30T04:57:49;15.93;;;5.88;;
25950;SDS011;13748;52.240;6.002;2023-07-30T05:00:15;14.55;;;6.13;;
25950;SDS011;13748;52.240;6.002;2023-07-30T05:02:43;18.02;;;7.05;;
25950;SDS011;13748;52.240;6.002;2023-07-30T05:05:10;16.65;;;6.75;;
25950;SDS011;13748;52.240;6.002;2023-07-30T05:07:36;16.33;;;6.10;;
25950;SDS011;13748;52.240;6.002;2023-07-30T05:10:04;11.48;;;6.15;;
25950;SDS011;13748;52.240;6.002;2023-07-30T05:12:33;17.95;;;6.70;;
25950;SDS011;13748;52.240;6.002;2023-07-30T05:14:59;25.33;;;7.03;;
25950;SDS011;13748;52.240;6.002;2023-07-30T05:17:26;21.23;;;7.03;;
25950;SDS011;13748;52.240;6.002;2023-07-30T05:19:53;23.33;;;6.68;;
25950;SDS011;13748;52.240;6.002;2023-07-30T05:22:20;19.52;;;6.80;;
25950;SDS011;13748;52.240;6.002;2023-07-30T05:24:47;15.00;;;7.18;;
25950;SDS011;13748;52.240;6.002;2023-07-30T05:27:16;17.40;;;7.28;;
25950;SDS011;13748;52.240;6.002;2023-07-30T05:29:43;20.55;;;8.07;;
25950;SDS011;13748;52.240;6.002;2023-07-30T05:32:14;22.10;;;7.82;;
25950;SDS011;13748;52.240;6.002;2023-07-30T05:34:40;20.95;;;7.53;;
25950;SDS011;13748;52.240;6.002;2023-07-30T05:37:07;19.35;;;6.95;;
25950;SDS011;13748;52.240;6.002;2023-07-30T05:39:34;26.38;;;8.00;;
25950;SDS011;13748;52.240;6.002;2023-07-30T05:42:01;23.95;;;7.22;;
25950;SDS011;13748;52.240;6.002;2023-07-30T05:44:29;18.90;;;6.53;;
25950;SDS011;13748;52.240;6.002;2023-07-30T05:46:58;17.90;;;7.13;;
25950;SDS011;13748;52.240;6.002;2023-07-30T05:49:25;13.32;;;6.00;;
25950;SDS011;13748;52.240;6.002;2023-07-30T05:51:52;14.55;;;6.45;;
25950;SDS011;13748;52.240;6.002;2023-07-30T05:54:19;19.38;;;6.93;;
25950;SDS011;13748;52.240;6.002;2023-07-30T05:56:46;16.55;;;7.60;;
25950;SDS011;13748;52.240;6.002;2023-07-30T05:59:12;15.13;;;7.03;;
25950;SDS011;13748;52.240;6.002;2023-07-30T06:01:45;16.27;;;7.95;;
25950;SDS011;13748;52.240;6.002;2023-07-30T06:04:12;16.58;;;6.85;;
25950;SDS011;13748;52.240;6.002;2023-07-30T06:06:39;19.60;;;7.05;;
25950;SDS011;13748;52.240;6.002;2023-07-30T06:09:06;14.30;;;6.60;;
25950;SDS011;13748;52.240;6.002;2023-07-30T06:11:33;17.15;;;5.88;;
25950;SDS011;13748;52.240;6.002;2023-07-30T06:14:00;15.57;;;6.32;;
25950;SDS011;13748;52.240;6.002;2023-07-30T06:16:27;14.45;;;6.32;;
25950;SDS011;13748;52.240;6.002;2023-07-30T06:18:54;19.25;;;6.68;;
25950;SDS011;13748;52.240;6.002;2023-07-30T06:21:20;19.88;;;6.60;;
25950;SDS011;13748;52.240;6.002;2023-07-30T06:23:47;17.20;;;5.93;;
25950;SDS011;13748;52.240;6.002;2023-07-30T06:26:14;17.92;;;6.43;;
25950;SDS011;13748;52.240;6.002;2023-07-30T06:28:41;13.02;;;6.28;;
25950;SDS011;13748;52.240;6.002;2023-07-30T06:31:07;14.45;;;5.82;;
25950;SDS011;13748;52.240;6.002;2023-07-30T06:33:35;11.75;;;5.82;;
25950;SDS011;13748;52.240;6.002;2023-07-30T06:36:02;13.13;;;6.53;;
25950;SDS011;13748;52.240;6.002;2023-07-30T06:38:30;13.07;;;6.03;;
25950;SDS011;13748;52.240;6.002;2023-07-30T06:40:56;16.10;;;6.78;;
25950;SDS011;13748;52.240;6.002;2023-07-30T06:43:24;16.48;;;6.63;;
25950;SDS011;13748;52.240;6.002;2023-07-30T06:45:51;14.07;;;6.40;;
25950;SDS011;13748;52.240;6.002;2023-07-30T06:48:19;15.20;;;6.95;;
25950;SDS011;13748;52.240;6.002;2023-07-30T06:50:46;14.73;;;6.35;;
25950;SDS011;13748;52.240;6.002;2023-07-30T06:53:12;21.05;;;6.72;;
25950;SDS011;13748;52.240;6.002;2023-07-30T06:55:40;13.50;;;6.57;;
25950;SDS011;13748;52.240;6.002;2023-07-30T06:58:06;17.77;;;6.70;;
25950;SDS011;13748;52.240;6.002;2023-07-30T07:00:33;17.88;;;6.15;;
25950;SDS011;13748;52.240;6.002;2023-07-30T07:03:00;16.90;;;5.45;;
25950;SDS011;13748;52.240;6.002;2023-07-30T07:05:27;16.80;;;6.45;;
25950;SDS011;13748;52.240;6.002;2023-07-30T07:07:54;15.40;;;5.78;;
25950;SDS011;13748;52.240;6.002;2023-07-30T07:10:21;16.55;;;7.40;;
25950;SDS011;13748;52.240;6.002;2023-07-30T07:12:47;16.33;;;6.72;;
25950;SDS011;13748;52.240;6.002;2023-07-30T07:15:14;13.75;;;6.28;;
25950;SDS011;13748;52.240;6.002;2023-07-30T07:17:41;12.50;;;6.50;;
25950;SDS011;13748;52.240;6.002;2023-07-30T07:20:08;12.75;;;6.30;;
25950;SDS011;13748;52.240;6.002;2023-07-30T07:22:36;11.80;;;5.72;;
25950;SDS011;13748;52.240;6.002;2023-07-30T07:25:03;15.48;;;5.75;;
25950;SDS011;13748;52.240;6.002;2023-07-30T07:27:31;9.45;;;5.28;;
25950;SDS011;13748;52.240;6.002;2023-07-30T07:29:57;15.85;;;5.85;;
25950;SDS011;13748;52.240;6.002;2023-07-30T07:32:25;12.48;;;6.25;;
25950;SDS011;13748;52.240;6.002;2023-07-30T07:34:52;10.77;;;4.95;;
25950;SDS011;13748;52.240;6.002;2023-07-30T07:37:19;10.52;;;5.07;;
25950;SDS011;13748;52.240;6.002;2023-07-30T07:39:46;19.42;;;6.00;;
25950;SDS011;13748;52.240;6.002;2023-07-30T07:42:13;10.15;;;4.70;;
25950;SDS011;13748;52.240;6.002;2023-07-30T07:44:40;11.85;;;5.13;;
25950;SDS011;13748;52.240;6.002;2023-07-30T07:47:08;15.30;;;5.57;;
25950;SDS011;13748;52.240;6.002;2023-07-30T07:49:35;14.30;;;5.60;;
25950;SDS011;13748;52.240;6.002;2023-07-30T07:52:02;9.68;;;5.35;;
25950;SDS011;13748;52.240;6.002;2023-07-30T07:54:29;11.10;;;4.85;;
25950;SDS011;13748;52.240;6.002;2023-07-30T07:56:56;10.30;;;5.22;;
25950;SDS011;13748;52.240;6.002;2023-07-30T07:59:23;10.18;;;4.45;;
25950;SDS011;13748;52.240;6.002;2023-07-30T08:01:50;14.43;;;4.75;;
25950;SDS011;13748;52.240;6.002;2023-07-30T08:04:17;13.50;;;5.82;;
25950;SDS011;13748;52.240;6.002;2023-07-30T08:06:45;12.27;;;4.70;;
25950;SDS011;13748;52.240;6.002;2023-07-30T08:09:11;13.30;;;4.97;;
25950;SDS011;13748;52.240;6.002;2023-07-30T08:11:38;13.63;;;4.25;;
25950;SDS011;13748;52.240;6.002;2023-07-30T08:14:05;10.75;;;4.38;;
25950;SDS011;13748;52.240;6.002;2023-07-30T08:16:32;12.52;;;4.28;;
25950;SDS011;13748;52.240;6.002;2023-07-30T08:18:59;9.27;;;4.20;;
25950;SDS011;13748;52.240;6.002;2023-07-30T08:21:25;11.70;;;4.45;;
25950;SDS011;13748;52.240;6.002;2023-07-30T08:23:52;12.38;;;4.68;;
25950;SDS011;13748;52.240;6.002;2023-07-30T08:26:19;12.30;;;5.82;;
25950;SDS011;13748;52.240;6.002;2023-07-30T08:28:46;12.23;;;4.43;;
25950;SDS011;13748;52.240;6.002;2023-07-30T08:31:13;11.65;;;3.85;;
25950;SDS011;13748;52.240;6.002;2023-07-30T08:33:39;12.82;;;3.80;;
25950;SDS011;13748;52.240;6.002;2023-07-30T08:36:06;7.00;;;3.38;;
25950;SDS011;13748;52.240;6.002;2023-07-30T08:38:33;7.97;;;3.20;;
25950;SDS011;13748;52.240;6.002;2023-07-30T08:41:00;9.60;;;3.40;;
25950;SDS011;13748;52.240;6.002;2023-07-30T08:43:27;8.48;;;3.28;;
25950;SDS011;13748;52.240;6.002;2023-07-30T08:45:54;7.18;;;3.60;;
25950;SDS011;13748;52.240;6.002;2023-07-30T08:48:21;10.30;;;3.60;;
25950;SDS011;13748;52.240;6.002;2023-07-30T08:50:48;9.93;;;3.42;;
25950;SDS011;13748;52.240;6.002;2023-07-30T08:53:15;9.10;;;3.05;;
25950;SDS011;13748;52.240;6.002;2023-07-30T08:55:42;7.85;;;3.25;;
25950;SDS011;13748;52.240;6.002;2023-07-30T08:58:10;6.35;;;3.40;;
25950;SDS011;13748;52.240;6.002;2023-07-30T09:00:38;8.88;;;2.85;;
25950;SDS011;13748;52.240;6.002;2023-07-30T09:03:08;11.20;;;2.95;;
25950;SDS011;13748;52.240;6.002;2023-07-30T09:05:36;12.23;;;2.97;;
25950;SDS011;13748;52.240;6.002;2023-07-30T09:08:04;11.88;;;2.88;;
25950;SDS011;13748;52.240;6.002;2023-07-30T09:10:32;9.32;;;3.17;;
25950;SDS011;13748;52.240;6.002;2023-07-30T09:12:58;7.55;;;3.03;;
25950;SDS011;13748;52.240;6.002;2023-07-30T09:15:29;7.45;;;2.70;;
25950;SDS011;13748;52.240;6.002;2023-07-30T09:18:01;7.80;;;2.88;;
25950;SDS011;13748;52.240;6.002;2023-07-30T09:20:28;10.68;;;3.50;;
25950;SDS011;13748;52.240;6.002;2023-07-30T09:23:08;8.25;;;3.25;;
25950;SDS011;13748;52.240;6.002;2023-07-30T09:25:36;9.63;;;3.35;;
25950;SDS011;13748;52.240;6.002;2023-07-30T09:28:07;10.10;;;3.17;;
25950;SDS011;13748;52.240;6.002;2023-07-30T09:30:34;9.38;;;3.08;;
25950;SDS011;13748;52.240;6.002;2023-07-30T09:33:01;8.43;;;3.08;;
25950;SDS011;13748;52.240;6.002;2023-07-30T09:35:28;12.70;;;3.30;;
25950;SDS011;13748;52.240;6.002;2023-07-30T09:38:02;9.05;;;3.13;;
25950;SDS011;13748;52.240;6.002;2023-07-30T09:40:31;6.32;;;2.60;;
25950;SDS011;13748;52.240;6.002;2023-07-30T09:43:02;9.20;;;2.92;;
25950;SDS011;13748;52.240;6.002;2023-07-30T09:45:34;8.02;;;3.25;;
25950;SDS011;13748;52.240;6.002;2023-07-30T09:48:03;7.75;;;2.78;;
25950;SDS011;13748;52.240;6.002;2023-07-30T09:50:33;8.77;;;2.95;;
25950;SDS011;13748;52.240;6.002;2023-07-30T09:53:00;5.97;;;2.83;;
25950;SDS011;13748;52.240;6.002;2023-07-30T09:55:28;9.80;;;2.92;;
25950;SDS011;13748;52.240;6.002;2023-07-30T09:57:55;6.82;;;2.63;;
25950;SDS011;13748;52.240;6.002;2023-07-30T10:00:22;6.57;;;2.53;;
25950;SDS011;13748;52.240;6.002;2023-07-30T10:02:49;10.85;;;2.30;;
25950;SDS011;13748;52.240;6.002;2023-07-30T10:05:19;9.68;;;3.10;;
25950;SDS011;13748;52.240;6.002;2023-07-30T10:07:51;10.90;;;2.90;;
25950;SDS011;13748;52.240;6.002;2023-07-30T10:10:22;8.65;;;2.35;;
25950;SDS011;13748;52.240;6.002;2023-07-30T10:12:51;7.72;;;2.53;;
25950;SDS011;13748;52.240;6.002;2023-07-30T10:15:19;5.75;;;2.40;;
25950;SDS011;13748;52.240;6.002;2023-07-30T10:17:47;8.27;;;2.40;;
25950;SDS011;13748;52.240;6.002;2023-07-30T10:20:32;7.30;;;2.00;;
25950;SDS011;13748;52.240;6.002;2023-07-30T10:23:00;9.05;;;2.30;;
25950;SDS011;13748;52.240;6.002;2023-07-30T10:25:30;5.20;;;2.00;;
25950;SDS011;13748;52.240;6.002;2023-07-30T10:31:00;5.75;;;2.25;;
25950;SDS011;13748;52.240;6.002;2023-07-30T10:33:50;5.75;;;2.28;;
25950;SDS011;13748;52.240;6.002;2023-07-30T10:36:32;7.22;;;2.00;;
25950;SDS011;13748;52.240;6.002;2023-07-30T10:39:19;4.70;;;2.08;;
25950;SDS011;13748;52.240;6.002;2023-07-30T10:41:49;5.68;;;1.80;;
25950;SDS011;13748;52.240;6.002;2023-07-30T10:47:00;5.28;;;1.70;;
25950;SDS011;13748;52.240;6.002;2023-07-30T10:49:29;7.47;;;2.10;;
25950;SDS011;13748;52.240;6.002;2023-07-30T10:52:01;2.60;;;1.20;;
25950;SDS011;13748;52.240;6.002;2023-07-30T10:54:32;3.58;;;1.55;;
25950;SDS011;13748;52.240;6.002;2023-07-30T10:57:00;5.10;;;1.70;;
25950;SDS011;13748;52.240;6.002;2023-07-30T10:59:37;5.32;;;1.42;;
25950;SDS011;13748;52.240;6.002;2023-07-30T11:02:04;5.35;;;1.27;;
25950;SDS011;13748;52.240;6.002;2023-07-30T11:04:33;4.47;;;1.40;;
25950;SDS011;13748;52.240;6.002;2023-07-30T11:07:01;4.97;;;1.40;;
25950;SDS011;13748;52.240;6.002;2023-07-30T11:09:30;3.83;;;1.40;;
25950;SDS011;13748;52.240;6.002;2023-07-30T11:11:57;4.65;;;1.25;;
25950;SDS011;13748;52.240;6.002;2023-07-30T11:14:25;7.00;;;1.70;;
25950;SDS011;13748;52.240;6.002;2023-07-30T11:16:53;4.50;;;1.60;;
25950;SDS011;13748;52.240;6.002;2023-07-30T11:19:28;3.95;;;1.40;;
25950;SDS011;13748;52.240;6.002;2023-07-30T11:21:56;6.32;;;2.05;;
25950;SDS011;13748;52.240;6.002;2023-07-30T11:24:34;5.85;;;1.38;;
25950;SDS011;13748;52.240;6.002;2023-07-30T11:27:02;3.70;;;1.40;;
25950;SDS011;13748;52.240;6.002;2023-07-30T11:29:29;2.80;;;1.30;;
25950;SDS011;13748;52.240;6.002;2023-07-30T11:31:57;4.28;;;1.73;;
25950;SDS011;13748;52.240;6.002;2023-07-30T11:34:29;3.10;;;1.30;;
25950;SDS011;13748;52.240;6.002;2023-07-30T11:37:00;6.22;;;1.75;;
25950;SDS011;13748;52.240;6.002;2023-07-30T11:39:28;3.05;;;1.40;;
25950;SDS011;13748;52.240;6.002;2023-07-30T11:41:55;3.95;;;1.35;;
25950;SDS011;13748;52.240;6.002;2023-07-30T11:44:31;7.75;;;1.88;;
25950;SDS011;13748;52.240;6.002;2023-07-30T11:47:00;2.75;;;1.23;;
25950;SDS011;13748;52.240;6.002;2023-07-30T11:49:27;4.53;;;1.23;;
25950;SDS011;13748;52.240;6.002;2023-07-30T11:52:06;3.67;;;1.20;;
25950;SDS011;13748;52.240;6.002;2023-07-30T11:54:35;4.63;;;1.55;;
25950;SDS011;13748;52.240;6.002;2023-07-30T11:57:02;4.25;;;1.55;;
25950;SDS011;13748;52.240;6.002;2023-07-30T11:59:30;6.78;;;1.63;;
25950;SDS011;13748;52.240;6.002;2023-07-30T12:01:58;4.15;;;1.30;;
25950;SDS011;13748;52.240;6.002;2023-07-30T12:04:29;3.38;;;1.23;;
25950;SDS011;13748;52.240;6.002;2023-07-30T12:06:57;4.25;;;1.52;;
25950;SDS011;13748;52.240;6.002;2023-07-30T12:09:24;4.40;;;1.65;;
25950;SDS011;13748;52.240;6.002;2023-07-30T12:11:57;2.65;;;1.67;;
25950;SDS011;13748;52.240;6.002;2023-07-30T12:14:26;3.40;;;1.38;;
25950;SDS011;13748;52.240;6.002;2023-07-30T12:17:00;3.10;;;1.38;;
25950;SDS011;13748;52.240;6.002;2023-07-30T12:19:27;6.22;;;1.55;;
25950;SDS011;13748;52.240;6.002;2023-07-30T12:21:54;8.68;;;2.08;;
25950;SDS011;13748;52.240;6.002;2023-07-30T12:24:21;14.63;;;4.47;;
25950;SDS011;13748;52.240;6.002;2023-07-30T12:26:48;10.10;;;3.10;;
25950;SDS011;13748;52.240;6.002;2023-07-30T12:29:18;4.78;;;1.23;;
25950;SDS011;13748;52.240;6.002;2023-07-30T12:31:45;8.90;;;2.35;;
25950;SDS011;13748;52.240;6.002;2023-07-30T12:34:14;17.63;;;3.60;;
25950;SDS011;13748;52.240;6.002;2023-07-30T12:36:41;7.40;;;3.10;;
25950;SDS011;13748;52.240;6.002;2023-07-30T12:39:08;7.18;;;2.00;;
25950;SDS011;13748;52.240;6.002;2023-07-30T12:41:35;5.75;;;1.60;;
25950;SDS011;13748;52.240;6.002;2023-07-30T12:44:03;2.17;;;0.95;;
25950;SDS011;13748;52.240;6.002;2023-07-30T12:46:31;4.57;;;1.10;;
25950;SDS011;13748;52.240;6.002;2023-07-30T12:48:59;3.40;;;1.00;;
25950;SDS011;13748;52.240;6.002;2023-07-30T12:51:32;18.55;;;4.45;;
25950;SDS011;13748;52.240;6.002;2023-07-30T12:53:59;8.52;;;1.95;;
25950;SDS011;13748;52.240;6.002;2023-07-30T12:56:26;13.07;;;3.45;;
25950;SDS011;13748;52.240;6.002;2023-07-30T12:58:53;3.45;;;1.25;;
25950;SDS011;13748;52.240;6.002;2023-07-30T13:01:20;8.52;;;2.58;;
25950;SDS011;13748;52.240;6.002;2023-07-30T13:03:47;7.28;;;1.60;;
25950;SDS011;13748;52.240;6.002;2023-07-30T13:06:15;15.38;;;4.35;;
25950;SDS011;13748;52.240;6.002;2023-07-30T13:08:42;5.22;;;1.75;;
25950;SDS011;13748;52.240;6.002;2023-07-30T13:11:09;5.88;;;2.00;;
25950;SDS011;13748;52.240;6.002;2023-07-30T13:13:36;3.67;;;1.02;;
25950;SDS011;13748;52.240;6.002;2023-07-30T13:16:03;3.88;;;1.23;;
25950;SDS011;13748;52.240;6.002;2023-07-30T13:18:30;8.02;;;1.48;;
25950;SDS011;13748;52.240;6.002;2023-07-30T13:20:57;4.65;;;1.25;;
25950;SDS011;13748;52.240;6.002;2023-07-30T13:23:24;27.50;;;6.68;;
25950;SDS011;13748;52.240;6.002;2023-07-30T13:25:53;6.57;;;2.05;;
25950;SDS011;13748;52.240;6.002;2023-07-30T13:28:19;19.10;;;4.32;;
25950;SDS011;13748;52.240;6.002;2023-07-30T13:30:46;2.75;;;1.08;;
25950;SDS011;13748;52.240;6.002;2023-07-30T13:33:16;3.38;;;1.08;;
25950;SDS011;13748;52.240;6.002;2023-07-30T13:35:43;4.03;;;0.90;;
25950;SDS011;13748;52.240;6.002;2023-07-30T13:38:10;2.88;;;0.70;;
25950;SDS011;13748;52.240;6.002;2023-07-30T13:40:37;3.38;;;1.05;;
25950;SDS011;13748;52.240;6.002;2023-07-30T13:43:04;3.92;;;1.13;;
25950;SDS011;13748;52.240;6.002;2023-07-30T13:45:31;5.20;;;0.80;;
25950;SDS011;13748;52.240;6.002;2023-07-30T13:47:57;1.48;;;0.82;;
25950;SDS011;13748;52.240;6.002;2023-07-30T13:50:24;3.72;;;1.20;;
25950;SDS011;13748;52.240;6.002;2023-07-30T13:52:51;3.75;;;0.90;;
25950;SDS011;13748;52.240;6.002;2023-07-30T13:55:18;1.08;;;0.60;;
25950;SDS011;13748;52.240;6.002;2023-07-30T13:57:46;4.60;;;1.27;;
25950;SDS011;13748;52.240;6.002;2023-07-30T14:00:13;4.00;;;1.15;;
25950;SDS011;13748;52.240;6.002;2023-07-30T14:02:40;4.57;;;0.85;;
25950;SDS011;13748;52.240;6.002;2023-07-30T14:05:07;2.22;;;0.63;;
25950;SDS011;13748;52.240;6.002;2023-07-30T14:07:35;1.88;;;0.70;;
25950;SDS011;13748;52.240;6.002;2023-07-30T14:10:02;3.72;;;0.93;;
25950;SDS011;13748;52.240;6.002;2023-07-30T14:12:29;1.70;;;0.68;;
25950;SDS011;13748;52.240;6.002;2023-07-30T14:14:56;2.60;;;0.98;;
25950;SDS011;13748;52.240;6.002;2023-07-30T14:17:22;3.03;;;0.80;;
25950;SDS011;13748;52.240;6.002;2023-07-30T14:19:49;2.10;;;0.77;;
25950;SDS011;13748;52.240;6.002;2023-07-30T14:22:16;2.75;;;0.77;;
25950;SDS011;13748;52.240;6.002;2023-07-30T14:24:43;1.52;;;0.70;;
25950;SDS011;13748;52.240;6.002;2023-07-30T14:27:11;1.75;;;0.68;;
25950;SDS011;13748;52.240;6.002;2023-07-30T14:29:38;4.80;;;0.80;;
25950;SDS011;13748;52.240;6.002;2023-07-30T14:32:05;2.08;;;0.70;;
25950;SDS011;13748;52.240;6.002;2023-07-30T14:34:32;2.13;;;0.90;;
25950;SDS011;13748;52.240;6.002;2023-07-30T14:36:59;2.92;;;0.88;;
25950;SDS011;13748;52.240;6.002;2023-07-30T14:39:26;3.85;;;1.00;;
25950;SDS011;13748;52.240;6.002;2023-07-30T14:41:52;1.80;;;0.98;;
25950;SDS011;13748;52.240;6.002;2023-07-30T14:44:19;2.83;;;0.90;;
25950;SDS011;13748;52.240;6.002;2023-07-30T14:46:46;1.77;;;0.70;;
25950;SDS011;13748;52.240;6.002;2023-07-30T14:49:14;3.00;;;0.85;;
25950;SDS011;13748;52.240;6.002;2023-07-30T14:51:41;4.70;;;1.00;;